sensor_id;sensor_type;location;lat;lon;timestamp;P1;durP1;ratioP1;P2;durP2;ratioP2
4206;SDS011;2117;47.972;7.830;2023-01-10T02:32:44;11.70;;;2.07;;
4206;SDS011;2117;47.972;7.830;2023-01-10T02:38:11;7.27;;;2.70;;
4206;SDS011;2117;47.972;7.830;2023-01-10T02:43:47;11.20;;;2.80;;
4206;SDS011;2117;47.972;7.830;2023-01-10T02:46:26;6.73;;;1.70;;
4206;SDS011;2117;47.972;7.830;2023-01-10T02:48:55;7.27;;;1.90;;
4206;SDS011;2117;47.972;7.830;2023-01-10T02:51:21;3.50;;;1.57;;
4206;SDS011;2117;47.972;7.830;2023-01-10T02:53:49;9.90;;;2.20;;
4206;SDS011;2117;47.972;7.830;2023-01-10T03:02:31;8.00;;;2.40;;
4206;SDS011;2117;47.972;7.830;2023-01-10T03:08:07;6.37;;;1.70;;
4206;SDS011;2117;47.972;7.830;2023-01-10T03:10:55;11.90;;;2.10;;
4206;SDS011;2117;47.972;7.830;2023-01-10T03:15:58;5.90;;;2.33;;
4206;SDS011;2117;47.972;7.830;2023-01-10T03:18:45;3.97;;;1.83;;
4206;SDS011;2117;47.972;7.830;2023-01-10T03:21:15;6.53;;;1.80;;
4206;SDS011;2117;47.972;7.830;2023-01-10T03:23:44;5.20;;;1.80;;
4206;SDS011;2117;47.972;7.830;2023-01-10T03:26:11;4.63;;;1.93;;
4206;SDS011;2117;47.972;7.830;2023-01-10T03:28:48;7.27;;;1.67;;
4206;SDS011;2117;47.972;7.830;2023-01-10T03:31:29;9.27;;;1.70;;
4206;SDS011;2117;47.972;7.830;2023-01-10T03:34:00;5.87;;;1.97;;
4206;SDS011;2117;47.972;7.830;2023-01-10T03:39:06;9.00;;;2.30;;
4206;SDS011;2117;47.972;7.830;2023-01-10T03:41:47;8.40;;;1.70;;
4206;SDS011;2117;47.972;7.830;2023-01-10T03:44:30;3.27;;;1.50;;
4206;SDS011;2117;47.972;7.830;2023-01-10T03:47:18;8.00;;;1.37;;
4206;SDS011;2117;47.972;7.830;2023-01-10T03:50:03;11.23;;;1.60;;
4206;SDS011;2117;47.972;7.830;2023-01-10T03:52:39;5.33;;;1.20;;
4206;SDS011;2117;47.972;7.830;2023-01-10T03:55:06;3.77;;;1.10;;
4206;SDS011;2117;47.972;7.830;2023-01-10T03:57:35;3.03;;;1.33;;
4206;SDS011;2117;47.972;7.830;2023-01-10T04:00:01;3.00;;;0.90;;
4206;SDS011;2117;47.972;7.830;2023-01-10T04:02:29;3.20;;;0.97;;
4206;SDS011;2117;47.972;7.830;2023-01-10T04:04:55;3.37;;;1.20;;
4206;SDS011;2117;47.972;7.830;2023-01-10T04:07:22;6.97;;;1.57;;
4206;SDS011;2117;47.972;7.830;2023-01-10T04:09:49;6.03;;;1.30;;
4206;SDS011;2117;47.972;7.830;2023-01-10T04:12:15;1.80;;;1.10;;
4206;SDS011;2117;47.972;7.830;2023-01-10T04:14:40;4.50;;;1.37;;
4206;SDS011;2117;47.972;7.830;2023-01-10T04:17:06;1.80;;;0.80;;
4206;SDS011;2117;47.972;7.830;2023-01-10T04:19:32;4.83;;;1.37;;
4206;SDS011;2117;47.972;7.830;2023-01-10T04:21:57;7.90;;;1.13;;
4206;SDS011;2117;47.972;7.830;2023-01-10T04:24:23;9.33;;;1.87;;
4206;SDS011;2117;47.972;7.830;2023-01-10T04:26:48;3.23;;;1.30;;
4206;SDS011;2117;47.972;7.830;2023-01-10T04:29:14;2.97;;;1.03;;
4206;SDS011;2117;47.972;7.830;2023-01-10T04:31:39;5.83;;;1.50;;
4206;SDS011;2117;47.972;7.830;2023-01-10T04:34:06;2.47;;;1.20;;
4206;SDS011;2117;47.972;7.830;2023-01-10T04:36:32;10.73;;;1.27;;
4206;SDS011;2117;47.972;7.830;2023-01-10T04:38:58;5.70;;;1.20;;
4206;SDS011;2117;47.972;7.830;2023-01-10T04:41:24;5.53;;;1.40;;
4206;SDS011;2117;47.972;7.830;2023-01-10T04:43:49;1.77;;;0.80;;
4206;SDS011;2117;47.972;7.830;2023-01-10T04:46:15;12.67;;;1.53;;
4206;SDS011;2117;47.972;7.830;2023-01-10T04:48:41;3.13;;;1.20;;
4206;SDS011;2117;47.972;7.830;2023-01-10T04:51:06;3.13;;;1.47;;
4206;SDS011;2117;47.972;7.830;2023-01-10T04:53:32;6.97;;;1.50;;
4206;SDS011;2117;47.972;7.830;2023-01-10T04:56:01;5.60;;;1.73;;
4206;SDS011;2117;47.972;7.830;2023-01-10T04:58:32;2.93;;;1.03;;
4206;SDS011;2117;47.972;7.830;2023-01-10T05:00:58;5.23;;;1.47;;
4206;SDS011;2117;47.972;7.830;2023-01-10T05:03:24;4.80;;;1.10;;
4206;SDS011;2117;47.972;7.830;2023-01-10T05:05:49;2.87;;;1.37;;
4206;SDS011;2117;47.972;7.830;2023-01-10T05:08:15;2.50;;;0.83;;
4206;SDS011;2117;47.972;7.830;2023-01-10T05:10:40;2.33;;;0.87;;
4206;SDS011;2117;47.972;7.830;2023-01-10T05:13:06;7.60;;;1.53;;
4206;SDS011;2117;47.972;7.830;2023-01-10T05:15:31;5.73;;;1.07;;
4206;SDS011;2117;47.972;7.830;2023-01-10T05:17:57;8.40;;;2.20;;
4206;SDS011;2117;47.972;7.830;2023-01-10T05:20:24;2.50;;;0.90;;
4206;SDS011;2117;47.972;7.830;2023-01-10T05:22:49;5.57;;;1.50;;
4206;SDS011;2117;47.972;7.830;2023-01-10T05:25:15;2.53;;;1.00;;
4206;SDS011;2117;47.972;7.830;2023-01-10T05:27:41;14.63;;;1.77;;
4206;SDS011;2117;47.972;7.830;2023-01-10T05:30:10;2.50;;;0.93;;
4206;SDS011;2117;47.972;7.830;2023-01-10T05:32:36;3.00;;;1.17;;
4206;SDS011;2117;47.972;7.830;2023-01-10T05:35:02;3.63;;;1.10;;
4206;SDS011;2117;47.972;7.830;2023-01-10T05:37:28;3.77;;;1.27;;
4206;SDS011;2117;47.972;7.830;2023-01-10T05:39:54;5.93;;;1.80;;
4206;SDS011;2117;47.972;7.830;2023-01-10T05:42:19;3.87;;;1.10;;
4206;SDS011;2117;47.972;7.830;2023-01-10T05:44:45;2.97;;;1.20;;
4206;SDS011;2117;47.972;7.830;2023-01-10T05:47:10;2.67;;;1.37;;
4206;SDS011;2117;47.972;7.830;2023-01-10T05:49:36;6.40;;;1.10;;
4206;SDS011;2117;47.972;7.830;2023-01-10T05:52:02;2.97;;;1.07;;
4206;SDS011;2117;47.972;7.830;2023-01-10T05:54:27;3.43;;;0.90;;
4206;SDS011;2117;47.972;7.830;2023-01-10T05:56:53;2.50;;;1.30;;
4206;SDS011;2117;47.972;7.830;2023-01-10T05:59:19;4.90;;;1.00;;
4206;SDS011;2117;47.972;7.830;2023-01-10T06:01:45;2.30;;;0.97;;
4206;SDS011;2117;47.972;7.830;2023-01-10T06:04:10;5.00;;;1.17;;
4206;SDS011;2117;47.972;7.830;2023-01-10T06:06:36;3.53;;;1.00;;
4206;SDS011;2117;47.972;7.830;2023-01-10T06:09:01;7.93;;;1.10;;
4206;SDS011;2117;47.972;7.830;2023-01-10T06:11:27;5.87;;;1.70;;
4206;SDS011;2117;47.972;7.830;2023-01-10T06:13:55;2.67;;;1.23;;
4206;SDS011;2117;47.972;7.830;2023-01-10T06:16:21;4.23;;;1.27;;
4206;SDS011;2117;47.972;7.830;2023-01-10T06:18:47;3.23;;;1.40;;
4206;SDS011;2117;47.972;7.830;2023-01-10T06:21:13;2.47;;;1.20;;
4206;SDS011;2117;47.972;7.830;2023-01-10T06:23:38;5.47;;;1.00;;
4206;SDS011;2117;47.972;7.830;2023-01-10T06:26:04;6.47;;;1.20;;
4206;SDS011;2117;47.972;7.830;2023-01-10T06:28:29;5.90;;;1.30;;
4206;SDS011;2117;47.972;7.830;2023-01-10T06:30:55;5.47;;;1.17;;
4206;SDS011;2117;47.972;7.830;2023-01-10T06:33:21;5.13;;;1.37;;
4206;SDS011;2117;47.972;7.830;2023-01-10T06:35:46;3.33;;;1.23;;
4206;SDS011;2117;47.972;7.830;2023-01-10T06:38:13;5.90;;;1.30;;
4206;SDS011;2117;47.972;7.830;2023-01-10T06:40:39;10.40;;;1.53;;
4206;SDS011;2117;47.972;7.830;2023-01-10T06:43:04;5.00;;;1.67;;
4206;SDS011;2117;47.972;7.830;2023-01-10T06:45:30;3.83;;;0.90;;
4206;SDS011;2117;47.972;7.830;2023-01-10T06:47:56;4.10;;;1.13;;
4206;SDS011;2117;47.972;7.830;2023-01-10T06:50:22;3.53;;;1.27;;
4206;SDS011;2117;47.972;7.830;2023-01-10T06:53:06;4.83;;;1.17;;
4206;SDS011;2117;47.972;7.830;2023-01-10T06:55:32;8.07;;;1.70;;
4206;SDS011;2117;47.972;7.830;2023-01-10T06:57:59;3.37;;;1.40;;
4206;SDS011;2117;47.972;7.830;2023-01-10T07:00:27;3.50;;;1.40;;
4206;SDS011;2117;47.972;7.830;2023-01-10T07:02:54;7.20;;;1.20;;
4206;SDS011;2117;47.972;7.830;2023-01-10T07:05:21;7.30;;;1.60;;
4206;SDS011;2117;47.972;7.830;2023-01-10T07:07:47;4.10;;;1.00;;
4206;SDS011;2117;47.972;7.830;2023-01-10T07:10:13;4.10;;;2.17;;
4206;SDS011;2117;47.972;7.830;2023-01-10T07:12:38;3.17;;;1.30;;
4206;SDS011;2117;47.972;7.830;2023-01-10T07:15:04;5.53;;;1.27;;
4206;SDS011;2117;47.972;7.830;2023-01-10T07:17:30;4.70;;;1.73;;
4206;SDS011;2117;47.972;7.830;2023-01-10T07:19:56;6.83;;;1.63;;
4206;SDS011;2117;47.972;7.830;2023-01-10T07:22:21;3.63;;;1.33;;
4206;SDS011;2117;47.972;7.830;2023-01-10T07:24:47;4.43;;;1.70;;
4206;SDS011;2117;47.972;7.830;2023-01-10T07:27:12;7.40;;;1.40;;
4206;SDS011;2117;47.972;7.830;2023-01-10T07:29:38;3.43;;;1.50;;
4206;SDS011;2117;47.972;7.830;2023-01-10T07:32:04;6.33;;;1.90;;
4206;SDS011;2117;47.972;7.830;2023-01-10T07:34:30;6.37;;;1.60;;
4206;SDS011;2117;47.972;7.830;2023-01-10T07:36:56;5.73;;;1.80;;
4206;SDS011;2117;47.972;7.830;2023-01-10T07:39:21;5.50;;;1.60;;
4206;SDS011;2117;47.972;7.830;2023-01-10T07:41:47;7.70;;;1.57;;
4206;SDS011;2117;47.972;7.830;2023-01-10T07:44:13;9.87;;;1.93;;
4206;SDS011;2117;47.972;7.830;2023-01-10T07:46:39;2.97;;;1.40;;
4206;SDS011;2117;47.972;7.830;2023-01-10T07:49:04;5.57;;;1.77;;
4206;SDS011;2117;47.972;7.830;2023-01-10T07:51:30;4.37;;;1.53;;
4206;SDS011;2117;47.972;7.830;2023-01-10T07:53:56;4.67;;;1.27;;
4206;SDS011;2117;47.972;7.830;2023-01-10T07:56:21;3.50;;;1.00;;
4206;SDS011;2117;47.972;7.830;2023-01-10T07:58:47;5.47;;;1.50;;
4206;SDS011;2117;47.972;7.830;2023-01-10T08:01:16;3.33;;;0.90;;
4206;SDS011;2117;47.972;7.830;2023-01-10T08:04:02;4.07;;;1.10;;
4206;SDS011;2117;47.972;7.830;2023-01-10T08:06:27;7.73;;;1.57;;
4206;SDS011;2117;47.972;7.830;2023-01-10T08:08:53;9.83;;;1.70;;
4206;SDS011;2117;47.972;7.830;2023-01-10T08:11:18;5.13;;;1.10;;
4206;SDS011;2117;47.972;7.830;2023-01-10T08:13:44;8.50;;;1.80;;
4206;SDS011;2117;47.972;7.830;2023-01-10T08:16:09;7.03;;;1.23;;
4206;SDS011;2117;47.972;7.830;2023-01-10T08:18:35;7.43;;;1.57;;
4206;SDS011;2117;47.972;7.830;2023-01-10T08:21:05;16.60;;;2.23;;
4206;SDS011;2117;47.972;7.830;2023-01-10T08:23:31;3.97;;;1.43;;
4206;SDS011;2117;47.972;7.830;2023-01-10T08:25:57;4.47;;;1.50;;
4206;SDS011;2117;47.972;7.830;2023-01-10T08:28:23;5.50;;;1.67;;
4206;SDS011;2117;47.972;7.830;2023-01-10T08:30:49;6.80;;;1.93;;
4206;SDS011;2117;47.972;7.830;2023-01-10T08:33:19;7.37;;;1.93;;
4206;SDS011;2117;47.972;7.830;2023-01-10T08:35:46;8.10;;;2.07;;
4206;SDS011;2117;47.972;7.830;2023-01-10T08:38:12;7.47;;;1.80;;
4206;SDS011;2117;47.972;7.830;2023-01-10T08:40:37;8.67;;;2.30;;
4206;SDS011;2117;47.972;7.830;2023-01-10T08:43:04;5.13;;;2.10;;
4206;SDS011;2117;47.972;7.830;2023-01-10T08:45:31;5.27;;;1.80;;
4206;SDS011;2117;47.972;7.830;2023-01-10T08:47:58;4.57;;;1.33;;
4206;SDS011;2117;47.972;7.830;2023-01-10T08:50:23;9.07;;;1.80;;
4206;SDS011;2117;47.972;7.830;2023-01-10T08:52:49;14.17;;;2.13;;
4206;SDS011;2117;47.972;7.830;2023-01-10T08:55:15;4.70;;;1.50;;
4206;SDS011;2117;47.972;7.830;2023-01-10T08:57:41;9.70;;;1.80;;
4206;SDS011;2117;47.972;7.830;2023-01-10T09:00:07;7.27;;;2.10;;
4206;SDS011;2117;47.972;7.830;2023-01-10T09:02:33;8.30;;;2.20;;
4206;SDS011;2117;47.972;7.830;2023-01-10T09:04:59;11.63;;;1.70;;
4206;SDS011;2117;47.972;7.830;2023-01-10T09:07:24;6.70;;;1.80;;
4206;SDS011;2117;47.972;7.830;2023-01-10T09:09:50;9.27;;;1.80;;
4206;SDS011;2117;47.972;7.830;2023-01-10T09:12:15;5.30;;;1.40;;
4206;SDS011;2117;47.972;7.830;2023-01-10T09:14:59;9.20;;;2.77;;
4206;SDS011;2117;47.972;7.830;2023-01-10T09:17:25;4.97;;;1.73;;
4206;SDS011;2117;47.972;7.830;2023-01-10T09:19:51;6.47;;;1.90;;
4206;SDS011;2117;47.972;7.830;2023-01-10T09:22:16;7.00;;;1.60;;
4206;SDS011;2117;47.972;7.830;2023-01-10T09:24:42;4.77;;;1.33;;
4206;SDS011;2117;47.972;7.830;2023-01-10T09:29:36;7.50;;;1.67;;
4206;SDS011;2117;47.972;7.830;2023-01-10T09:32:02;5.90;;;1.43;;
4206;SDS011;2117;47.972;7.830;2023-01-10T09:34:28;6.90;;;1.20;;
4206;SDS011;2117;47.972;7.830;2023-01-10T09:36:54;8.10;;;1.87;;
4206;SDS011;2117;47.972;7.830;2023-01-10T09:39:20;3.17;;;1.70;;
4206;SDS011;2117;47.972;7.830;2023-01-10T09:44:58;3.70;;;1.30;;
4206;SDS011;2117;47.972;7.830;2023-01-10T09:50:18;8.07;;;1.90;;
4206;SDS011;2117;47.972;7.830;2023-01-10T09:52:52;4.33;;;1.73;;
4206;SDS011;2117;47.972;7.830;2023-01-10T09:55:37;9.80;;;1.90;;
4206;SDS011;2117;47.972;7.830;2023-01-10T09:58:05;8.20;;;1.97;;
4206;SDS011;2117;47.972;7.830;2023-01-10T10:03:12;5.23;;;1.67;;
4206;SDS011;2117;47.972;7.830;2023-01-10T10:05:47;10.20;;;2.23;;
4206;SDS011;2117;47.972;7.830;2023-01-10T10:08:15;8.23;;;2.23;;
4206;SDS011;2117;47.972;7.830;2023-01-10T10:10:47;6.70;;;1.60;;
4206;SDS011;2117;47.972;7.830;2023-01-10T10:13:32;8.57;;;1.80;;
4206;SDS011;2117;47.972;7.830;2023-01-10T10:19:00;18.30;;;2.77;;
4206;SDS011;2117;47.972;7.830;2023-01-10T10:24:06;7.13;;;3.07;;
4206;SDS011;2117;47.972;7.830;2023-01-10T10:26:58;12.60;;;1.60;;
4206;SDS011;2117;47.972;7.830;2023-01-10T10:32:25;10.30;;;1.87;;
4206;SDS011;2117;47.972;7.830;2023-01-10T10:34:59;13.10;;;2.77;;
4206;SDS011;2117;47.972;7.830;2023-01-10T10:37:41;12.90;;;2.33;;
4206;SDS011;2117;47.972;7.830;2023-01-10T10:42:46;9.47;;;2.50;;
4206;SDS011;2117;47.972;7.830;2023-01-10T10:48:46;7.27;;;2.33;;
4206;SDS011;2117;47.972;7.830;2023-01-10T10:51:05;11.10;;;2.33;;
4206;SDS011;2117;47.972;7.830;2023-01-10T10:53:36;13.67;;;2.33;;
4206;SDS011;2117;47.972;7.830;2023-01-10T10:56:02;6.73;;;2.03;;
4206;SDS011;2117;47.972;7.830;2023-01-10T10:58:30;11.67;;;2.63;;
4206;SDS011;2117;47.972;7.830;2023-01-10T11:00:56;9.33;;;2.13;;
4206;SDS011;2117;47.972;7.830;2023-01-10T11:06:04;11.80;;;2.20;;
4206;SDS011;2117;47.972;7.830;2023-01-10T11:08:31;14.13;;;2.60;;
4206;SDS011;2117;47.972;7.830;2023-01-10T11:11:03;13.63;;;2.10;;
4206;SDS011;2117;47.972;7.830;2023-01-10T11:13:54;5.80;;;1.90;;
4206;SDS011;2117;47.972;7.830;2023-01-10T11:16:22;11.10;;;2.10;;
4206;SDS011;2117;47.972;7.830;2023-01-10T11:21:35;10.50;;;2.07;;
4206;SDS011;2117;47.972;7.830;2023-01-10T11:24:02;6.67;;;2.60;;
4206;SDS011;2117;47.972;7.830;2023-01-10T11:26:29;16.10;;;2.63;;
4206;SDS011;2117;47.972;7.830;2023-01-10T11:31:48;13.30;;;2.23;;
4206;SDS011;2117;47.972;7.830;2023-01-10T11:36:58;10.33;;;2.23;;
4206;SDS011;2117;47.972;7.830;2023-01-10T11:39:26;14.50;;;2.70;;
4206;SDS011;2117;47.972;7.830;2023-01-10T11:41:53;6.77;;;1.83;;
4206;SDS011;2117;47.972;7.830;2023-01-10T11:44:22;10.03;;;2.23;;
4206;SDS011;2117;47.972;7.830;2023-01-10T11:46:55;14.20;;;2.10;;
4206;SDS011;2117;47.972;7.830;2023-01-10T11:49:27;5.47;;;2.10;;
4206;SDS011;2117;47.972;7.830;2023-01-10T11:52:03;7.43;;;1.33;;
4206;SDS011;2117;47.972;7.830;2023-01-10T11:54:53;14.17;;;2.70;;
4206;SDS011;2117;47.972;7.830;2023-01-10T11:57:24;6.30;;;2.17;;
4206;SDS011;2117;47.972;7.830;2023-01-10T11:59:53;9.50;;;1.57;;
4206;SDS011;2117;47.972;7.830;2023-01-10T12:02:28;13.77;;;2.63;;
4206;SDS011;2117;47.972;7.830;2023-01-10T12:04:58;6.63;;;1.83;;
4206;SDS011;2117;47.972;7.830;2023-01-10T12:07:27;6.93;;;2.00;;
4206;SDS011;2117;47.972;7.830;2023-01-10T12:09:57;7.17;;;1.93;;
4206;SDS011;2117;47.972;7.830;2023-01-10T12:12:25;6.53;;;2.13;;
4206;SDS011;2117;47.972;7.830;2023-01-10T12:14:52;10.40;;;2.37;;
4206;SDS011;2117;47.972;7.830;2023-01-10T12:19:50;7.00;;;1.77;;
4206;SDS011;2117;47.972;7.830;2023-01-10T12:22:17;10.13;;;2.60;;
4206;SDS011;2117;47.972;7.830;2023-01-10T12:24:45;6.50;;;2.03;;
4206;SDS011;2117;47.972;7.830;2023-01-10T12:27:14;5.70;;;2.23;;
4206;SDS011;2117;47.972;7.830;2023-01-10T12:29:43;8.83;;;2.47;;
4206;SDS011;2117;47.972;7.830;2023-01-10T12:32:16;11.73;;;2.23;;
4206;SDS011;2117;47.972;7.830;2023-01-10T12:34:47;11.80;;;2.87;;
4206;SDS011;2117;47.972;7.830;2023-01-10T12:39:58;10.93;;;2.40;;
4206;SDS011;2117;47.972;7.830;2023-01-10T12:42:47;9.73;;;1.57;;
4206;SDS011;2117;47.972;7.830;2023-01-10T12:45:34;5.17;;;1.70;;
4206;SDS011;2117;47.972;7.830;2023-01-10T12:48:14;15.70;;;1.70;;
4206;SDS011;2117;47.972;7.830;2023-01-10T12:50:49;8.37;;;1.87;;
4206;SDS011;2117;47.972;7.830;2023-01-10T12:53:34;11.00;;;1.93;;
4206;SDS011;2117;47.972;7.830;2023-01-10T12:56:04;9.27;;;2.83;;
4206;SDS011;2117;47.972;7.830;2023-01-10T12:58:39;9.37;;;2.50;;
4206;SDS011;2117;47.972;7.830;2023-01-10T13:01:18;6.87;;;2.10;;
4206;SDS011;2117;47.972;7.830;2023-01-10T13:03:49;8.60;;;1.80;;
4206;SDS011;2117;47.972;7.830;2023-01-10T13:06:26;13.23;;;2.13;;
4206;SDS011;2117;47.972;7.830;2023-01-10T13:08:59;8.47;;;3.03;;
4206;SDS011;2117;47.972;7.830;2023-01-10T13:11:29;5.60;;;2.83;;
4206;SDS011;2117;47.972;7.830;2023-01-10T13:14:01;5.43;;;2.40;;
4206;SDS011;2117;47.972;7.830;2023-01-10T13:16:32;5.90;;;1.90;;
4206;SDS011;2117;47.972;7.830;2023-01-10T13:21:36;11.90;;;3.50;;
4206;SDS011;2117;47.972;7.830;2023-01-10T13:24:04;5.10;;;1.67;;
4206;SDS011;2117;47.972;7.830;2023-01-10T13:26:53;7.50;;;2.30;;
4206;SDS011;2117;47.972;7.830;2023-01-10T13:29:25;8.23;;;2.43;;
4206;SDS011;2117;47.972;7.830;2023-01-10T13:31:59;11.53;;;3.40;;
4206;SDS011;2117;47.972;7.830;2023-01-10T13:34:30;11.23;;;2.07;;
4206;SDS011;2117;47.972;7.830;2023-01-10T13:37:00;7.80;;;2.60;;
4206;SDS011;2117;47.972;7.830;2023-01-10T13:39:56;6.87;;;1.90;;
4206;SDS011;2117;47.972;7.830;2023-01-10T13:42:33;8.67;;;2.43;;
4206;SDS011;2117;47.972;7.830;2023-01-10T13:45:22;10.90;;;1.77;;
4206;SDS011;2117;47.972;7.830;2023-01-10T13:52:49;10.67;;;2.37;;
4206;SDS011;2117;47.972;7.830;2023-01-10T13:55:20;9.80;;;2.40;;
4206;SDS011;2117;47.972;7.830;2023-01-10T13:57:57;8.37;;;2.93;;
4206;SDS011;2117;47.972;7.830;2023-01-10T14:06:49;5.63;;;1.93;;
4206;SDS011;2117;47.972;7.830;2023-01-10T14:08:54;4.97;;;1.93;;
4206;SDS011;2117;47.972;7.830;2023-01-10T14:11:21;4.63;;;1.77;;
4206;SDS011;2117;47.972;7.830;2023-01-10T14:13:54;4.90;;;1.70;;
4206;SDS011;2117;47.972;7.830;2023-01-10T14:16:55;5.77;;;1.87;;
4206;SDS011;2117;47.972;7.830;2023-01-10T14:19:23;6.33;;;1.90;;
4206;SDS011;2117;47.972;7.830;2023-01-10T14:21:53;5.10;;;1.70;;
4206;SDS011;2117;47.972;7.830;2023-01-10T14:24:25;10.23;;;1.70;;
4206;SDS011;2117;47.972;7.830;2023-01-10T14:26:53;5.50;;;1.63;;
4206;SDS011;2117;47.972;7.830;2023-01-10T14:29:21;6.43;;;1.97;;
4206;SDS011;2117;47.972;7.830;2023-01-10T14:31:48;9.83;;;1.87;;
4206;SDS011;2117;47.972;7.830;2023-01-10T14:34:21;4.10;;;1.30;;
4206;SDS011;2117;47.972;7.830;2023-01-10T14:36:58;6.30;;;1.83;;
4206;SDS011;2117;47.972;7.830;2023-01-10T14:39:27;3.73;;;1.20;;
4206;SDS011;2117;47.972;7.830;2023-01-10T14:41:57;5.37;;;1.40;;
4206;SDS011;2117;47.972;7.830;2023-01-10T14:44:28;6.43;;;1.53;;
4206;SDS011;2117;47.972;7.830;2023-01-10T14:46:59;9.17;;;1.87;;
4206;SDS011;2117;47.972;7.830;2023-01-10T14:51:54;3.57;;;1.30;;
4206;SDS011;2117;47.972;7.830;2023-01-10T14:54:35;4.63;;;1.17;;
4206;SDS011;2117;47.972;7.830;2023-01-10T14:57:01;9.93;;;2.10;;
4206;SDS011;2117;47.972;7.830;2023-01-10T14:59:31;3.90;;;1.50;;
4206;SDS011;2117;47.972;7.830;2023-01-10T15:05:00;5.13;;;1.23;;
4206;SDS011;2117;47.972;7.830;2023-01-10T15:07:33;10.17;;;1.33;;
4206;SDS011;2117;47.972;7.830;2023-01-10T15:09:59;5.03;;;1.93;;
4206;SDS011;2117;47.972;7.830;2023-01-10T15:12:28;6.20;;;2.10;;
4206;SDS011;2117;47.972;7.830;2023-01-10T15:14:58;10.93;;;1.83;;
4206;SDS011;2117;47.972;7.830;2023-01-10T15:17:26;5.63;;;2.60;;
4206;SDS011;2117;47.972;7.830;2023-01-10T15:19:52;8.17;;;1.50;;
4206;SDS011;2117;47.972;7.830;2023-01-10T15:22:29;6.90;;;1.50;;
4206;SDS011;2117;47.972;7.830;2023-01-10T15:24:58;5.10;;;1.87;;
4206;SDS011;2117;47.972;7.830;2023-01-10T15:27:32;5.17;;;2.17;;
4206;SDS011;2117;47.972;7.830;2023-01-10T15:29:58;9.30;;;2.40;;
4206;SDS011;2117;47.972;7.830;2023-01-10T15:32:34;9.20;;;3.43;;
4206;SDS011;2117;47.972;7.830;2023-01-10T15:35:03;4.50;;;2.00;;
4206;SDS011;2117;47.972;7.830;2023-01-10T15:37:31;5.30;;;2.20;;
4206;SDS011;2117;47.972;7.830;2023-01-10T15:40:02;5.83;;;2.20;;
4206;SDS011;2117;47.972;7.830;2023-01-10T15:42:30;6.80;;;1.83;;
4206;SDS011;2117;47.972;7.830;2023-01-10T15:44:56;4.83;;;1.43;;
4206;SDS011;2117;47.972;7.830;2023-01-10T15:53:01;4.60;;;2.00;;
4206;SDS011;2117;47.972;7.830;2023-01-10T15:55:33;11.33;;;3.90;;
4206;SDS011;2117;47.972;7.830;2023-01-10T15:58:03;10.10;;;3.97;;
4206;SDS011;2117;47.972;7.830;2023-01-10T16:00:30;6.80;;;3.17;;
4206;SDS011;2117;47.972;7.830;2023-01-10T16:02:56;6.83;;;2.27;;
4206;SDS011;2117;47.972;7.830;2023-01-10T16:05:21;4.90;;;2.00;;
4206;SDS011;2117;47.972;7.830;2023-01-10T16:07:47;6.87;;;2.17;;
4206;SDS011;2117;47.972;7.830;2023-01-10T16:10:16;10.30;;;1.80;;
4206;SDS011;2117;47.972;7.830;2023-01-10T16:12:48;11.10;;;3.37;;
4206;SDS011;2117;47.972;7.830;2023-01-10T16:15:33;13.37;;;2.80;;
4206;SDS011;2117;47.972;7.830;2023-01-10T16:18:02;7.80;;;3.73;;
4206;SDS011;2117;47.972;7.830;2023-01-10T16:20:28;9.03;;;4.03;;
4206;SDS011;2117;47.972;7.830;2023-01-10T16:23:15;21.77;;;4.87;;
4206;SDS011;2117;47.972;7.830;2023-01-10T16:25:42;11.90;;;4.17;;
4206;SDS011;2117;47.972;7.830;2023-01-10T16:28:11;12.30;;;4.90;;
4206;SDS011;2117;47.972;7.830;2023-01-10T16:30:38;6.50;;;4.13;;
4206;SDS011;2117;47.972;7.830;2023-01-10T16:33:08;9.53;;;4.77;;
4206;SDS011;2117;47.972;7.830;2023-01-10T16:35:36;6.17;;;3.73;;
4206;SDS011;2117;47.972;7.830;2023-01-10T16:38:01;10.27;;;3.47;;
4206;SDS011;2117;47.972;7.830;2023-01-10T16:40:28;12.53;;;3.10;;
4206;SDS011;2117;47.972;7.830;2023-01-10T16:42:58;3.83;;;2.40;;
4206;SDS011;2117;47.972;7.830;2023-01-10T16:45:52;5.87;;;3.10;;
4206;SDS011;2117;47.972;7.830;2023-01-10T16:48:23;7.07;;;2.50;;
4206;SDS011;2117;47.972;7.830;2023-01-10T16:50:50;8.80;;;2.50;;
4206;SDS011;2117;47.972;7.830;2023-01-10T16:53:16;3.67;;;1.60;;
4206;SDS011;2117;47.972;7.830;2023-01-10T16:55:46;6.00;;;2.10;;
4206;SDS011;2117;47.972;7.830;2023-01-10T16:58:13;9.87;;;1.50;;
4206;SDS011;2117;47.972;7.830;2023-01-10T17:00:41;4.50;;;2.13;;
4206;SDS011;2117;47.972;7.830;2023-01-10T17:03:16;6.70;;;2.30;;
4206;SDS011;2117;47.972;7.830;2023-01-10T17:05:46;6.87;;;2.30;;
4206;SDS011;2117;47.972;7.830;2023-01-10T17:08:14;5.60;;;2.90;;
4206;SDS011;2117;47.972;7.830;2023-01-10T17:10:43;11.80;;;4.07;;
4206;SDS011;2117;47.972;7.830;2023-01-10T17:13:10;8.80;;;4.67;;
4206;SDS011;2117;47.972;7.830;2023-01-10T17:15:37;8.13;;;3.77;;
4206;SDS011;2117;47.972;7.830;2023-01-10T17:18:03;10.70;;;4.90;;
4206;SDS011;2117;47.972;7.830;2023-01-10T17:20:29;10.33;;;3.53;;
4206;SDS011;2117;47.972;7.830;2023-01-10T17:22:55;8.53;;;3.33;;
4206;SDS011;2117;47.972;7.830;2023-01-10T17:25:21;7.63;;;3.47;;
4206;SDS011;2117;47.972;7.830;2023-01-10T17:27:46;6.93;;;3.40;;
4206;SDS011;2117;47.972;7.830;2023-01-10T17:30:12;7.93;;;3.20;;
4206;SDS011;2117;47.972;7.830;2023-01-10T17:32:38;4.10;;;2.70;;
4206;SDS011;2117;47.972;7.830;2023-01-10T17:35:04;5.80;;;3.00;;
4206;SDS011;2117;47.972;7.830;2023-01-10T17:37:30;7.63;;;2.30;;
4206;SDS011;2117;47.972;7.830;2023-01-10T17:39:56;5.10;;;2.33;;
4206;SDS011;2117;47.972;7.830;2023-01-10T17:42:22;8.03;;;2.60;;
4206;SDS011;2117;47.972;7.830;2023-01-10T17:44:48;6.63;;;2.37;;
4206;SDS011;2117;47.972;7.830;2023-01-10T17:47:13;4.67;;;2.57;;
4206;SDS011;2117;47.972;7.830;2023-01-10T17:49:39;11.93;;;2.80;;
4206;SDS011;2117;47.972;7.830;2023-01-10T17:52:07;6.93;;;2.60;;
4206;SDS011;2117;47.972;7.830;2023-01-10T17:54:33;5.90;;;2.20;;
4206;SDS011;2117;47.972;7.830;2023-01-10T17:57:00;3.70;;;1.47;;
4206;SDS011;2117;47.972;7.830;2023-01-10T17:59:26;6.70;;;1.90;;
4206;SDS011;2117;47.972;7.830;2023-01-10T18:01:52;8.73;;;2.27;;
4206;SDS011;2117;47.972;7.830;2023-01-10T18:04:17;2.80;;;1.50;;
4206;SDS011;2117;47.972;7.830;2023-01-10T18:06:44;6.43;;;1.67;;
4206;SDS011;2117;47.972;7.830;2023-01-10T18:09:09;3.90;;;1.20;;
4206;SDS011;2117;47.972;7.830;2023-01-10T18:11:35;6.73;;;1.30;;
4206;SDS011;2117;47.972;7.830;2023-01-10T18:14:01;4.30;;;1.70;;
4206;SDS011;2117;47.972;7.830;2023-01-10T18:16:46;5.83;;;1.60;;
4206;SDS011;2117;47.972;7.830;2023-01-10T18:19:12;5.20;;;1.90;;
4206;SDS011;2117;47.972;7.830;2023-01-10T18:21:37;8.77;;;1.73;;
4206;SDS011;2117;47.972;7.830;2023-01-10T18:24:03;7.57;;;1.90;;
4206;SDS011;2117;47.972;7.830;2023-01-10T18:26:29;5.47;;;1.90;;
4206;SDS011;2117;47.972;7.830;2023-01-10T18:28:54;3.30;;;1.80;;
4206;SDS011;2117;47.972;7.830;2023-01-10T18:31:20;10.93;;;4.07;;
4206;SDS011;2117;47.972;7.830;2023-01-10T18:33:46;21.50;;;5.63;;
4206;SDS011;2117;47.972;7.830;2023-01-10T18:36:13;5.70;;;3.00;;
4206;SDS011;2117;47.972;7.830;2023-01-10T18:38:41;3.63;;;1.50;;
4206;SDS011;2117;47.972;7.830;2023-01-10T18:41:06;3.60;;;1.50;;
4206;SDS011;2117;47.972;7.830;2023-01-10T18:43:32;4.13;;;1.43;;
4206;SDS011;2117;47.972;7.830;2023-01-10T18:45:58;5.00;;;2.37;;
4206;SDS011;2117;47.972;7.830;2023-01-10T18:48:28;5.57;;;2.90;;
4206;SDS011;2117;47.972;7.830;2023-01-10T18:50:55;12.03;;;5.70;;
4206;SDS011;2117;47.972;7.830;2023-01-10T18:53:23;20.53;;;6.90;;
4206;SDS011;2117;47.972;7.830;2023-01-10T18:55:52;9.00;;;3.87;;
4206;SDS011;2117;47.972;7.830;2023-01-10T18:58:18;7.90;;;2.30;;
4206;SDS011;2117;47.972;7.830;2023-01-10T19:00:43;4.50;;;1.93;;
4206;SDS011;2117;47.972;7.830;2023-01-10T19:03:09;4.60;;;1.67;;
4206;SDS011;2117;47.972;7.830;2023-01-10T19:05:34;2.23;;;1.37;;
4206;SDS011;2117;47.972;7.830;2023-01-10T19:08:00;4.50;;;3.00;;
4206;SDS011;2117;47.972;7.830;2023-01-10T19:10:26;6.33;;;2.07;;
4206;SDS011;2117;47.972;7.830;2023-01-10T19:12:51;5.40;;;2.00;;
4206;SDS011;2117;47.972;7.830;2023-01-10T19:15:18;4.97;;;1.67;;
4206;SDS011;2117;47.972;7.830;2023-01-10T19:17:43;4.73;;;2.50;;
4206;SDS011;2117;47.972;7.830;2023-01-10T19:20:09;4.43;;;4.03;;
4206;SDS011;2117;47.972;7.830;2023-01-10T19:22:35;5.10;;;4.20;;